Time;durP1;ratioP1;P1;durP2;ratioP2;P2;SDS_P1;SDS_P2;PMS_P1;PMS_P2;Temp;Humidity;BMP_temperature;BMP_pressure;BME280_temperature;BME280_humidity;BME280_pressure;Samples;Min_cycle;Max_cycle;Signal;HPM_P1;HPM_P2
2021/08/07 00:02:27;;;;;;;1.02;0.60;;;24.30;58.70;;;;;;6240375;28;20022;-72
2021/08/07 00:05:27;;;;;;;0.80;0.45;;;24.30;58.00;;;;;;6241291;28;20041;-72
2021/08/07 00:08:28;;;;;;;0.63;0.47;;;24.30;58.00;;;;;;6240649;28;20014;-71
2021/08/07 00:11:28;;;;;;;0.80;0.57;;;24.30;58.00;;;;;;6240804;28;20116;-71
2021/08/07 00:14:29;;;;;;;0.40;0.40;;;24.30;58.00;;;;;;6227227;28;20234;-71
2021/08/07 00:17:29;;;;;;;1.33;0.47;;;24.30;58.00;;;;;;6226088;28;20287;-71
2021/08/07 00:20:30;;;;;;;0.60;0.60;;;24.30;58.00;;;;;;6245743;28;20025;-71
2021/08/07 00:23:31;;;;;;;0.50;0.50;;;24.30;58.10;;;;;;6244897;28;20069;-71
2021/08/07 00:26:31;;;;;;;0.40;0.40;;;24.30;58.00;;;;;;6245938;28;20022;-71
2021/08/07 00:29:35;;;;;;;0.47;0.40;;;24.30;58.00;;;;;;6244813;28;20030;-71
2021/08/07 00:32:36;;;;;;;0.82;0.60;;;24.30;58.00;;;;;;6245040;28;20045;-72
2021/08/07 00:35:36;;;;;;;0.40;0.40;;;24.30;58.10;;;;;;6245140;28;20399;-72
2021/08/07 00:38:37;;;;;;;0.60;0.40;;;24.30;58.00;;;;;;6245222;28;20384;-71
2021/08/07 00:41:37;;;;;;;0.45;0.45;;;24.30;58.10;;;;;;6245425;28;20029;-71
2021/08/07 00:44:38;;;;;;;0.20;0.20;;;24.30;58.10;;;;;;6244653;28;20027;-71
2021/08/07 00:47:39;;;;;;;1.85;0.60;;;24.30;58.00;;;;;;6244806;28;20079;-72
2021/08/07 00:50:39;;;;;;;0.50;0.40;;;24.30;58.10;;;;;;6244699;28;20409;-71
2021/08/07 00:53:40;;;;;;;0.57;0.47;;;24.30;58.10;;;;;;6244277;28;20358;-71
2021/08/07 00:56:41;;;;;;;0.60;0.60;;;24.30;58.10;;;;;;6245008;28;20511;-71
2021/08/07 00:59:41;;;;;;;0.80;0.65;;;24.30;58.10;;;;;;6244508;28;20021;-72
2021/08/07 01:02:52;;;;;;;1.00;0.60;;;24.30;58.10;;;;;;6244144;28;20029;-71
2021/08/07 01:06:22;;;;;;;0.50;0.30;;;24.30;58.10;;;;;;6244506;28;20099;-71
2021/08/07 01:09:48;;;;;;;0.40;0.40;;;24.30;58.10;;;;;;6244255;28;20057;-71
2021/08/07 01:12:58;;;;;;;0.38;0.38;;;24.30;58.10;;;;;;6244621;28;20029;-71
2021/08/07 01:16:09;;;;;;;0.77;0.50;;;24.30;58.20;;;;;;6219625;28;20440;-71
2021/08/07 01:19:14;;;;;;;0.43;0.40;;;24.30;58.10;;;;;;6234514;28;20021;-72
2021/08/07 01:22:19;;;;;;;0.55;0.40;;;24.30;58.10;;;;;;6244262;28;20484;-71
2021/08/07 01:25:19;;;;;;;0.50;0.40;;;24.30;58.20;;;;;;6244053;28;20029;-72
2021/08/07 01:28:21;;;;;;;0.40;0.40;;;24.30;58.20;;;;;;6243204;28;20041;-71
2021/08/07 01:31:22;;;;;;;0.40;0.40;;;24.30;58.10;;;;;;6243963;28;20037;-71
2021/08/07 01:34:23;;;;;;;0.40;0.40;;;24.30;58.10;;;;;;6244069;28;20032;-71
2021/08/07 01:37:24;;;;;;;0.43;0.43;;;24.30;58.10;;;;;;6243274;28;20051;-71
2021/08/07 01:40:25;;;;;;;0.63;0.30;;;24.30;58.20;;;;;;6243444;28;20030;-71
2021/08/07 01:43:25;;;;;;;0.95;0.50;;;24.30;58.20;;;;;;6243534;28;20032;-71
2021/08/07 01:46:36;;;;;;;0.50;0.50;;;24.30;58.20;;;;;;6243435;28;20017;-71
2021/08/07 01:50:00;;;;;;;0.88;0.50;;;24.30;58.20;;;;;;6243271;28;20033;-71
2021/08/07 01:53:10;;;;;;;0.47;0.47;;;24.30;58.20;;;;;;6243468;28;20045;-71
2021/08/07 01:56:16;;;;;;;0.40;0.40;;;24.30;58.20;;;;;;6242931;28;20300;-71
2021/08/07 01:59:20;;;;;;;0.47;0.40;;;24.30;58.20;;;;;;6243251;28;20029;-71
2021/08/07 02:02:22;;;;;;;0.50;0.50;;;24.30;58.20;;;;;;6243792;28;20029;-72
2021/08/07 02:05:23;;;;;;;0.40;0.38;;;24.30;58.20;;;;;;6242558;28;20056;-73
2021/08/07 02:08:23;;;;;;;0.82;0.40;;;24.30;58.20;;;;;;6243012;28;20302;-71
2021/08/07 02:11:25;;;;;;;0.40;0.40;;;24.30;58.20;;;;;;6242856;28;20080;-71
2021/08/07 02:14:27;;;;;;;0.40;0.40;;;24.30;58.20;;;;;;6234218;28;20127;-71
2021/08/07 02:17:29;;;;;;;0.30;0.30;;;24.30;58.20;;;;;;6240735;28;20030;-71
2021/08/07 02:20:30;;;;;;;0.52;0.40;;;24.30;58.20;;;;;;6242699;28;20025;-71
2021/08/07 02:23:31;;;;;;;0.40;0.40;;;24.30;58.20;;;;;;6241335;28;20029;-71
2021/08/07 02:26:32;;;;;;;0.35;0.30;;;24.30;58.20;;;;;;6242482;28;20480;-70
2021/08/07 02:29:34;;;;;;;0.30;0.30;;;24.30;58.20;;;;;;6242289;28;20064;-71
2021/08/07 02:32:36;;;;;;;0.32;0.28;;;24.30;58.20;;;;;;6242662;28;20029;-72
2021/08/07 02:35:38;;;;;;;0.40;0.40;;;24.30;58.30;;;;;;6242325;28;20030;-71
2021/08/07 02:38:38;;;;;;;0.50;0.50;;;24.30;58.30;;;;;;6242896;28;20057;-72
2021/08/07 02:41:40;;;;;;;0.60;0.50;;;24.30;58.30;;;;;;6241678;28;20031;-71
2021/08/07 02:44:41;;;;;;;0.30;0.30;;;24.30;58.30;;;;;;6242253;28;20037;-72
2021/08/07 02:47:43;;;;;;;0.65;0.55;;;24.30;58.30;;;;;;6241868;28;20033;-71
2021/08/07 02:50:44;;;;;;;0.40;0.40;;;24.30;58.30;;;;;;6242149;28;20515;-71
2021/08/07 02:53:46;;;;;;;1.10;0.47;;;24.30;58.30;;;;;;6241948;28;20018;-71
2021/08/07 02:56:46;;;;;;;0.30;0.30;;;24.30;58.30;;;;;;6241939;28;20061;-71
2021/08/07 02:59:47;;;;;;;0.30;0.30;;;24.30;58.30;;;;;;6242185;28;20025;-71
2021/08/07 03:02:47;;;;;;;0.32;0.32;;;24.30;58.30;;;;;;6241801;28;20033;-71
2021/08/07 03:05:48;;;;;;;0.30;0.30;;;24.30;58.30;;;;;;6241769;28;20025;-72
2021/08/07 03:08:49;;;;;;;0.43;0.43;;;24.30;58.30;;;;;;6242141;28;20033;-72
2021/08/07 03:11:50;;;;;;;0.50;0.50;;;24.30;58.30;;;;;;6241558;28;20041;-71
2021/08/07 03:14:50;;;;;;;0.30;0.30;;;24.30;58.30;;;;;;6225410;28;20034;-71
2021/08/07 03:17:52;;;;;;;0.85;0.40;;;24.30;58.30;;;;;;6238693;28;20416;-71
2021/08/07 03:20:57;;;;;;;0.30;0.30;;;24.30;58.30;;;;;;6241434;28;20044;-71
2021/08/07 03:23:57;;;;;;;;;;;24.30;58.30;;;;;;6242691;28;20059;-71
2021/08/07 03:26:58;;;;;;;0.40;0.40;;;24.30;58.30;;;;;;6241088;28;20364;-71
2021/08/07 03:29:58;;;;;;;0.30;0.30;;;24.30;58.30;;;;;;6241112;28;20351;-71
2021/08/07 03:32:59;;;;;;;0.38;0.38;;;24.30;58.40;;;;;;6241063;28;20249;-71
2021/08/07 03:35:59;;;;;;;0.38;0.38;;;24.30;58.30;;;;;;6241287;28;20500;-71
2021/08/07 03:39:00;;;;;;;0.65;0.40;;;24.30;58.30;;;;;;6241594;28;20469;-71
2021/08/07 03:42:00;;;;;;;0.40;0.40;;;24.30;58.40;;;;;;6240990;28;20061;-71
2021/08/07 03:45:01;;;;;;;0.22;0.22;;;24.30;58.30;;;;;;6241029;28;20029;-71
2021/08/07 03:48:03;;;;;;;0.40;0.40;;;24.30;58.30;;;;;;6241106;28;20048;-71
2021/08/07 03:51:04;;;;;;;0.40;0.40;;;24.30;58.40;;;;;;6240562;28;20043;-71
2021/08/07 03:54:04;;;;;;;0.40;0.38;;;24.30;58.30;;;;;;6244841;28;20504;-71
2021/08/07 03:57:05;;;;;;;0.50;0.38;;;24.30;58.40;;;;;;6245706;28;20092;-70
2021/08/07 04:00:37;;;;;;;0.20;0.20;;;24.30;58.40;;;;;;6246155;28;20163;-71
2021/08/07 04:03:37;;;;;;;0.50;0.50;;;24.30;58.40;;;;;;6245776;28;20064;-71
2021/08/07 04:06:38;;;;;;;0.30;0.30;;;24.30;58.40;;;;;;6245780;28;20030;-71
2021/08/07 04:09:38;;;;;;;0.30;0.30;;;24.30;58.40;;;;;;6245349;28;20128;-71
2021/08/07 04:12:39;;;;;;;0.30;0.30;;;24.30;58.40;;;;;;6245182;28;20036;-71
2021/08/07 04:15:39;;;;;;;0.63;0.43;;;24.30;58.40;;;;;;6222870;28;20436;-71
2021/08/07 04:18:40;;;;;;;0.35;0.35;;;24.30;58.40;;;;;;6237184;28;20091;-72
2021/08/07 04:21:40;;;;;;;0.63;0.40;;;24.30;58.50;;;;;;6245835;28;20049;-72
2021/08/07 04:24:41;;;;;;;0.40;0.40;;;24.30;58.40;;;;;;6245151;28;20049;-71
2021/08/07 04:27:42;;;;;;;0.30;0.30;;;24.30;58.40;;;;;;6245086;28;20017;-71
2021/08/07 04:30:44;;;;;;;0.68;0.38;;;24.30;58.40;;;;;;6244925;28;20034;-71
2021/08/07 04:33:45;;;;;;;0.30;0.30;;;24.30;58.40;;;;;;6245151;28;20652;-71
2021/08/07 04:36:45;;;;;;;0.20;0.20;;;24.30;58.40;;;;;;6245547;28;20025;-71
2021/08/07 04:39:46;;;;;;;1.50;0.38;;;24.30;58.40;;;;;;6245333;28;20481;-71
2021/08/07 04:42:46;;;;;;;0.40;0.40;;;24.30;58.40;;;;;;6244354;28;20033;-72
2021/08/07 04:45:47;;;;;;;0.47;0.40;;;24.30;58.40;;;;;;6245275;28;20288;-71
2021/08/07 04:48:47;;;;;;;0.40;0.40;;;24.30;58.40;;;;;;6245355;28;20049;-72
2021/08/07 04:51:48;;;;;;;0.90;0.47;;;24.30;58.40;;;;;;6245538;28;20025;-71
2021/08/07 04:54:48;;;;;;;0.30;0.30;;;24.30;58.50;;;;;;6244642;28;20026;-71
2021/08/07 04:57:50;;;;;;;0.40;0.40;;;24.30;58.40;;;;;;6244329;28;20061;-71
2021/08/07 05:00:50;;;;;;;0.28;0.28;;;24.30;58.50;;;;;;6243399;28;20028;-71
2021/08/07 05:03:51;;;;;;;0.47;0.40;;;24.30;58.50;;;;;;6243766;28;20428;-71
2021/08/07 05:06:51;;;;;;;0.45;0.40;;;24.30;58.50;;;;;;6244462;28;20412;-71
2021/08/07 05:09:52;;;;;;;0.40;0.40;;;24.30;58.50;;;;;;6244364;28;20030;-71
2021/08/07 05:12:52;;;;;;;0.30;0.30;;;24.30;58.50;;;;;;6244438;28;20349;-71
2021/08/07 05:15:53;;;;;;;0.40;0.40;;;24.30;58.50;;;;;;6244260;28;20021;-72
2021/08/07 05:18:53;;;;;;;0.30;0.30;;;24.30;58.40;;;;;;6244202;28;20025;-71
2021/08/07 05:21:54;;;;;;;0.50;0.40;;;24.30;58.40;;;;;;6244281;28;20057;-71
2021/08/07 05:24:54;;;;;;;0.63;0.40;;;24.30;58.50;;;;;;6243529;28;20033;-72
2021/08/07 05:27:55;;;;;;;0.30;0.30;;;24.30;58.40;;;;;;6244691;28;20044;-71
2021/08/07 05:30:55;;;;;;;0.30;0.30;;;24.30;58.40;;;;;;6243533;28;20049;-71
2021/08/07 05:33:56;;;;;;;0.30;0.30;;;24.30;58.40;;;;;;6243590;28;20026;-71
2021/08/07 05:36:56;;;;;;;0.30;0.30;;;24.30;58.40;;;;;;6244114;28;20099;-71
2021/08/07 05:39:59;;;;;;;0.50;0.30;;;24.30;58.40;;;;;;6243662;28;20025;-71
2021/08/07 05:42:59;;;;;;;0.20;0.20;;;24.30;58.40;;;;;;6243471;28;20028;-71
2021/08/07 05:46:00;;;;;;;0.40;0.40;;;24.30;58.40;;;;;;6243655;28;20025;-71
2021/08/07 05:49:00;;;;;;;0.30;0.30;;;24.30;58.40;;;;;;6243466;28;20038;-71
2021/08/07 05:52:01;;;;;;;0.30;0.30;;;24.30;58.40;;;;;;6243660;28;20037;-71
2021/08/07 05:55:02;;;;;;;0.47;0.40;;;24.30;58.30;;;;;;6243225;28;20025;-71
2021/08/07 05:58:03;;;;;;;0.30;0.30;;;24.30;58.30;;;;;;6243134;28;20029;-71
2021/08/07 06:01:05;;;;;;;0.30;0.30;;;24.30;58.30;;;;;;6243438;28;20053;-71
2021/08/07 06:04:05;;;;;;;0.32;0.30;;;24.30;58.30;;;;;;6242511;28;20021;-72
2021/08/07 06:07:06;;;;;;;0.30;0.30;;;24.30;58.30;;;;;;6243579;28;20036;-71
2021/08/07 06:10:07;;;;;;;0.38;0.30;;;24.30;58.30;;;;;;6242939;28;20098;-71
2021/08/07 06:13:08;;;;;;;0.40;0.30;;;24.30;58.30;;;;;;6240566;28;20112;-71
2021/08/07 06:16:08;;;;;;;0.30;0.30;;;24.30;58.20;;;;;;6235194;28;20030;-71
2021/08/07 06:19:09;;;;;;;0.30;0.30;;;24.40;58.30;;;;;;6242631;28;20010;-71
2021/08/07 06:22:10;;;;;;;0.35;0.35;;;24.30;58.20;;;;;;6242896;28;20160;-71
2021/08/07 06:25:12;;;;;;;0.30;0.30;;;24.30;58.20;;;;;;6243298;28;20371;-72
2021/08/07 06:28:13;;;;;;;0.40;0.40;;;24.30;58.20;;;;;;6242653;28;20029;-72
2021/08/07 06:31:13;;;;;;;0.35;0.35;;;24.30;58.20;;;;;;6242027;28;20076;-71
2021/08/07 06:34:14;;;;;;;0.32;0.30;;;24.30;58.20;;;;;;6242521;28;20028;-71
2021/08/07 06:37:14;;;;;;;0.45;0.40;;;24.30;58.20;;;;;;6242641;28;20312;-71
2021/08/07 06:40:16;;;;;;;0.30;0.30;;;24.30;58.10;;;;;;6242523;28;20372;-71
2021/08/07 06:43:18;;;;;;;0.28;0.28;;;24.30;58.20;;;;;;6219640;28;20034;-72
2021/08/07 06:46:18;;;;;;;0.38;0.35;;;24.30;58.20;;;;;;6230832;28;20440;-71
2021/08/07 06:49:19;;;;;;;0.40;0.30;;;24.30;58.20;;;;;;6237732;28;20042;-71
2021/08/07 06:52:20;;;;;;;0.20;0.20;;;24.30;58.20;;;;;;6240312;28;20037;-71
2021/08/07 06:55:20;;;;;;;1.25;0.40;;;24.30;58.10;;;;;;6238938;28;20061;-71
2021/08/07 06:58:21;;;;;;;0.50;0.30;;;24.30;58.10;;;;;;6239994;28;20116;-71
2021/08/07 07:01:21;;;;;;;0.40;0.30;;;24.30;58.10;;;;;;6228140;28;20447;-73
2021/08/07 07:04:22;;;;;;;0.63;0.38;;;24.30;58.10;;;;;;6238748;28;20485;-71
2021/08/07 07:07:23;;;;;;;0.52;0.35;;;24.30;58.20;;;;;;6255948;28;20040;-71
2021/08/07 07:10:23;;;;;;;0.50;0.40;;;24.30;58.20;;;;;;6246380;28;20045;-71
2021/08/07 07:13:24;;;;;;;1.23;0.50;;;24.30;58.50;;;;;;6222888;28;20044;-71
2021/08/07 07:16:24;;;;;;;5.93;0.60;;;24.40;59.00;;;;;;6243094;28;20029;-71
2021/08/07 07:19:29;;;;;;;1999.90;219.23;;;24.40;60.10;;;;;;6238885;28;20041;-73
2021/08/07 07:22:30;;;;;;;686.65;52.30;;;24.50;60.90;;;;;;6239274;28;20320;-71
2021/08/07 07:25:30;;;;;;;187.35;16.67;;;24.50;59.70;;;;;;6239198;28;20493;-70
2021/08/07 07:28:31;;;;;;;185.00;14.07;;;24.50;59.50;;;;;;6237578;28;20328;-71
2021/08/07 07:31:31;;;;;;;162.60;13.13;;;24.50;59.20;;;;;;6238157;28;20025;-71
2021/08/07 07:34:32;;;;;;;124.07;11.32;;;24.40;59.00;;;;;;6253985;28;20462;-71
2021/08/07 07:37:32;;;;;;;101.28;9.65;;;24.40;58.80;;;;;;6229523;28;20087;-71
2021/08/07 07:40:34;;;;;;;65.00;6.63;;;24.50;58.90;;;;;;6232638;28;20044;-71
2021/08/07 07:43:35;;;;;;;84.85;7.07;;;24.40;58.70;;;;;;6238718;28;20737;-71
2021/08/07 07:46:35;;;;;;;58.67;5.28;;;24.40;58.70;;;;;;6238250;28;20393;-71
2021/08/07 07:49:36;;;;;;;55.35;5.75;;;24.40;58.60;;;;;;6237896;28;20033;-71
2021/08/07 07:52:36;;;;;;;39.83;5.30;;;24.40;59.00;;;;;;6237007;28;20041;-71
2021/08/07 07:55:37;;;;;;;34.65;4.30;;;24.40;58.60;;;;;;6238275;28;20057;-71
2021/08/07 07:58:37;;;;;;;33.40;4.57;;;24.40;58.60;;;;;;6238558;28;20041;-71
2021/08/07 08:01:38;;;;;;;27.38;4.05;;;24.40;58.50;;;;;;6238689;28;20222;-71
2021/08/07 08:04:38;;;;;;;30.48;4.35;;;24.40;58.60;;;;;;6235945;28;20041;-71
2021/08/07 08:07:42;;;;;;;19.73;3.28;;;24.40;58.50;;;;;;6238987;28;20095;-71
2021/08/07 08:10:43;;;;;;;16.05;3.30;;;24.40;58.60;;;;;;6238112;28;20496;-71
2021/08/07 08:13:43;;;;;;;12.10;2.95;;;24.40;58.60;;;;;;6231072;28;20101;-71
2021/08/07 08:16:45;;;;;;;19.15;2.88;;;24.40;58.60;;;;;;6232394;28;20044;-71
2021/08/07 08:19:46;;;;;;;22.15;3.15;;;24.40;58.50;;;;;;6238106;28;20029;-71
2021/08/07 08:22:47;;;;;;;15.98;2.33;;;24.40;58.50;;;;;;6237891;28;20022;-71
2021/08/07 08:25:48;;;;;;;14.00;2.58;;;24.40;58.50;;;;;;6238085;28;20025;-71
2021/08/07 08:28:49;;;;;;;16.73;2.35;;;24.40;58.50;;;;;;6228390;28;20068;-71
2021/08/07 08:31:49;;;;;;;11.70;2.13;;;24.40;58.50;;;;;;6234609;28;20029;-71
2021/08/07 08:34:50;;;;;;;15.00;2.88;;;24.40;58.60;;;;;;6237768;28;20061;-70
2021/08/07 08:37:50;;;;;;;11.95;2.00;;;24.50;58.70;;;;;;6226349;28;20735;-71
2021/08/07 08:40:57;;;;;;;9.02;2.08;;;24.50;58.60;;;;;;6241908;28;20029;-71
2021/08/07 08:43:58;;;;;;;16.50;2.08;;;24.50;58.70;;;;;;6236639;28;20026;-71
2021/08/07 08:46:59;;;;;;;8.43;1.75;;;24.50;58.70;;;;;;6243224;28;20034;-71
2021/08/07 08:49:59;;;;;;;11.23;1.67;;;24.40;58.60;;;;;;6242427;28;20379;-71
2021/08/07 08:53:02;;;;;;;7.88;1.40;;;24.50;58.70;;;;;;6241694;28;20026;-70
2021/08/07 08:56:03;;;;;;;11.25;1.65;;;24.40;58.60;;;;;;6242245;28;20128;-71
2021/08/07 08:59:04;;;;;;;13.88;1.90;;;24.40;58.70;;;;;;6242839;28;20376;-71
2021/08/07 09:02:05;;;;;;;9.50;1.85;;;24.40;58.70;;;;;;6242684;28;20030;-70
2021/08/07 09:05:08;;;;;;;7.95;1.55;;;24.40;58.70;;;;;;6241279;28;20087;-70
2021/08/07 09:08:08;;;;;;;9.80;1.55;;;24.40;58.70;;;;;;6240326;28;20048;-71
2021/08/07 09:11:19;;;;;;;7.18;1.63;;;24.40;58.70;;;;;;6241414;28;20067;-71
2021/08/07 09:14:26;;;;;;;10.88;2.13;;;24.40;58.70;;;;;;6240422;28;20024;-71
2021/08/07 09:17:26;;;;;;;13.15;2.35;;;24.40;58.80;;;;;;6232998;28;20029;-71
2021/08/07 09:20:28;;;;;;;6.05;1.58;;;24.40;58.70;;;;;;6242011;28;20552;-70
2021/08/07 09:23:31;;;;;;;8.43;2.50;;;24.40;58.80;;;;;;6240593;28;20021;-71
2021/08/07 09:26:32;;;;;;;18.25;3.75;;;24.40;58.70;;;;;;6224523;28;20029;-70
2021/08/07 09:29:40;;;;;;;10.85;3.63;;;24.40;58.70;;;;;;6241448;28;20489;-70
2021/08/07 09:32:53;;;;;;;9.38;3.20;;;24.40;58.80;;;;;;6241453;28;20033;-71
2021/08/07 09:35:53;;;;;;;10.38;3.35;;;24.40;58.80;;;;;;6241967;28;20033;-71
2021/08/07 09:38:54;;;;;;;18.55;4.28;;;24.40;58.80;;;;;;6240778;28;20029;-71
2021/08/07 09:41:59;;;;;;;19.10;4.20;;;24.40;58.80;;;;;;6240403;28;20053;-71
2021/08/07 09:45:06;;;;;;;11.23;3.58;;;24.40;58.80;;;;;;6240219;28;20030;-71
2021/08/07 09:48:16;;;;;;;14.38;4.03;;;24.40;59.50;;;;;;6234518;28;20388;-71
2021/08/07 09:51:24;;;;;;;17.38;4.50;;;24.40;58.80;;;;;;6243096;28;20038;-70
2021/08/07 09:54:36;;;;;;;11.88;4.47;;;24.40;58.90;;;;;;6243708;28;20206;-70
2021/08/07 09:57:37;;;;;;;12.63;4.50;;;24.40;58.80;;;;;;6243194;28;20041;-70
2021/08/07 10:00:45;;;;;;;13.32;4.30;;;24.40;58.90;;;;;;6242068;28;20083;-70
2021/08/07 10:03:45;;;;;;;11.95;4.22;;;24.40;58.80;;;;;;6243169;28;20018;-70
2021/08/07 10:06:47;;;;;;;13.65;4.35;;;24.40;58.90;;;;;;6243430;28;20457;-71
2021/08/07 10:09:48;;;;;;;11.95;3.88;;;24.40;58.90;;;;;;6242853;28;20411;-70
2021/08/07 10:12:49;;;;;;;13.70;4.22;;;24.40;58.90;;;;;;6242770;28;20038;-71
2021/08/07 10:15:50;;;;;;;12.15;3.63;;;24.40;58.90;;;;;;6230427;28;20021;-70
2021/08/07 10:18:52;;;;;;;18.77;4.68;;;24.40;59.60;;;;;;6242815;28;20445;-70
2021/08/07 10:21:53;;;;;;;10.32;3.10;;;24.40;58.90;;;;;;6242807;28;20029;-71
2021/08/07 10:24:54;;;;;;;8.35;3.05;;;24.40;58.90;;;;;;6242591;28;20018;-70
2021/08/07 10:28:00;;;;;;;11.02;3.38;;;24.40;58.90;;;;;;6242778;28;20061;-70
2021/08/07 10:31:02;;;;;;;9.88;3.47;;;24.40;58.90;;;;;;6242446;28;20322;-71
2021/08/07 10:34:05;;;;;;;10.13;3.13;;;24.40;58.90;;;;;;6242609;28;20115;-71
2021/08/07 10:37:05;;;;;;;9.15;3.20;;;24.40;59.60;;;;;;6240797;28;20025;-70
2021/08/07 10:40:09;;;;;;;9.45;3.17;;;24.40;58.90;;;;;;6242574;28;20025;-71
2021/08/07 10:43:12;;;;;;;8.30;3.03;;;24.40;58.90;;;;;;6242113;28;20025;-70
2021/08/07 10:46:16;;;;;;;8.38;3.03;;;24.40;58.90;;;;;;6242279;28;20034;-71
2021/08/07 10:49:38;;;;;;;8.38;2.63;;;24.40;58.90;;;;;;6242298;28;20052;-70
2021/08/07 10:52:40;;;;;;;6.65;2.67;;;24.40;58.90;;;;;;6241700;28;20392;-70
2021/08/07 10:55:47;;;;;;;9.10;3.72;;;24.40;58.90;;;;;;6241749;28;20562;-70
2021/08/07 10:58:49;;;;;;;11.77;3.30;;;24.40;58.90;;;;;;6241976;28;20029;-70
2021/08/07 11:01:55;;;;;;;6.30;2.47;;;24.40;58.90;;;;;;6241037;28;20087;-70
2021/08/07 11:04:56;;;;;;;8.18;2.92;;;24.40;58.90;;;;;;6242184;28;20026;-70
2021/08/07 11:08:18;;;;;;;9.30;2.67;;;24.40;58.90;;;;;;6241266;28;20029;-70
2021/08/07 11:11:27;;;;;;;7.18;2.20;;;24.40;58.90;;;;;;6241364;28;20100;-70
2021/08/07 11:14:28;;;;;;;6.25;2.35;;;24.40;59.00;;;;;;6228427;28;20034;-70
2021/08/07 11:17:33;;;;;;;7.60;2.30;;;24.40;59.60;;;;;;6231123;28;20061;-70
2021/08/07 11:20:39;;;;;;;6.93;2.25;;;24.40;58.90;;;;;;6241723;28;20025;-71
2021/08/07 11:23:39;;;;;;;7.25;2.60;;;24.40;58.90;;;;;;6241614;28;20029;-70
2021/08/07 11:26:49;;;;;;;8.43;3.08;;;24.40;58.90;;;;;;6242055;28;20052;-71
2021/08/07 11:30:20;;;;;;;7.57;2.33;;;24.40;58.90;;;;;;6241297;28;20041;-70
2021/08/07 11:33:21;;;;;;;6.57;2.58;;;24.40;58.90;;;;;;6240820;28;20029;-70
2021/08/07 11:36:21;;;;;;;6.68;2.63;;;24.40;58.80;;;;;;6241657;28;20148;-71
2021/08/07 11:39:22;;;;;;;5.90;2.70;;;24.40;58.80;;;;;;6240926;28;20610;-71
2021/08/07 11:42:41;;;;;;;4.10;1.95;;;24.40;58.90;;;;;;6241084;28;20033;-70
2021/08/07 11:45:42;;;;;;;5.88;2.20;;;24.40;58.90;;;;;;6240825;28;20108;-71
2021/08/07 11:48:45;;;;;;;4.10;2.20;;;24.40;58.90;;;;;;6240924;28;20041;-70
2021/08/07 11:51:46;;;;;;;4.57;1.85;;;24.40;58.90;;;;;;6241101;28;20033;-70
2021/08/07 11:54:52;;;;;;;5.38;2.13;;;24.40;58.90;;;;;;6241057;28;20516;-70
2021/08/07 11:58:04;;;;;;;4.00;1.90;;;24.40;58.80;;;;;;6240739;28;20060;-71
2021/08/07 12:01:04;;;;;;;5.88;2.17;;;24.40;58.80;;;;;;6241114;28;20067;-71
2021/08/07 12:04:05;;;;;;;4.45;1.85;;;24.40;58.80;;;;;;6240583;28;20046;-71
2021/08/07 12:07:10;;;;;;;4.15;1.58;;;24.40;58.80;;;;;;6240844;28;20084;-70
2021/08/07 12:10:14;;;;;;;;;;;24.40;58.90;;;;;;6241301;28;20257;-71
2021/08/07 12:13:22;;;;;;;3.88;1.70;;;24.40;59.50;;;;;;6237901;28;19978;-71
2021/08/07 12:16:29;;;;;;;3.92;1.70;;;24.40;58.90;;;;;;6221333;28;20489;-71
2021/08/07 12:19:29;;;;;;;4.85;2.20;;;24.40;58.90;;;;;;6240158;28;20022;-70
2021/08/07 12:22:30;;;;;;;6.32;1.90;;;24.40;58.90;;;;;;6245259;28;20225;-70
2021/08/07 12:25:32;;;;;;;3.33;1.92;;;24.40;58.90;;;;;;6245801;28;20030;-71
2021/08/07 12:28:33;;;;;;;4.13;1.90;;;24.40;58.90;;;;;;6245162;28;20104;-70
2021/08/07 12:31:45;;;;;;;3.10;1.50;;;24.40;58.90;;;;;;6245826;28;20048;-70
2021/08/07 12:34:46;;;;;;;3.00;1.40;;;24.40;58.90;;;;;;6245608;28;20026;-70
2021/08/07 12:37:46;;;;;;;4.85;1.75;;;24.40;58.90;;;;;;6245340;28;20041;-71
2021/08/07 12:40:50;;;;;;;4.28;1.80;;;24.40;58.90;;;;;;6245279;28;20546;-70
2021/08/07 12:43:51;;;;;;;3.50;1.65;;;24.40;58.90;;;;;;6244752;28;20026;-70
2021/08/07 12:46:54;;;;;;;7.15;1.73;;;24.40;58.90;;;;;;6245435;28;20033;-71
2021/08/07 12:49:55;;;;;;;3.15;1.77;;;24.40;58.90;;;;;;6244893;28;20352;-70
2021/08/07 12:52:59;;;;;;;3.47;1.58;;;24.40;58.90;;;;;;6244440;28;20034;-73
2021/08/07 12:55:59;;;;;;;2.72;1.42;;;24.40;58.90;;;;;;6244685;28;20058;-70
2021/08/07 12:59:07;;;;;;;2.58;1.20;;;24.40;58.90;;;;;;6244912;28;20041;-70
2021/08/07 13:02:09;;;;;;;2.75;1.48;;;24.40;58.90;;;;;;6244386;28;20057;-70
2021/08/07 13:05:10;;;;;;;2.25;1.40;;;24.40;58.90;;;;;;6244429;28;20837;-70
2021/08/07 13:08:28;;;;;;;4.00;1.55;;;24.40;58.90;;;;;;6244581;28;20025;-70
2021/08/07 13:11:29;;;;;;;2.55;1.30;;;24.40;58.90;;;;;;6244715;28;20041;-70
2021/08/07 13:14:30;;;;;;;2.65;1.23;;;24.40;58.90;;;;;;6240180;28;20472;-70
2021/08/07 13:17:35;;;;;;;2.92;1.30;;;24.40;58.90;;;;;;6244293;28;20032;-70
2021/08/07 13:20:45;;;;;;;2.38;1.27;;;24.40;58.90;;;;;;6244320;28;20070;-70
2021/08/07 13:23:46;;;;;;;1.65;1.00;;;24.40;58.90;;;;;;6243807;28;20056;-71
2021/08/07 13:26:49;;;;;;;2.25;1.20;;;24.40;58.90;;;;;;6244373;28;20100;-70
2021/08/07 13:29:59;;;;;;;2.30;1.20;;;24.40;58.90;;;;;;6243657;28;20065;-70
2021/08/07 13:33:02;;;;;;;2.30;1.10;;;24.40;58.90;;;;;;6243544;28;20033;-70
2021/08/07 13:36:03;;;;;;;2.78;1.15;;;24.40;58.90;;;;;;6244537;28;20022;-70
2021/08/07 13:39:04;;;;;;;2.95;1.30;;;24.40;58.90;;;;;;6243837;28;20393;-70
2021/08/07 13:42:04;;;;;;;2.05;1.08;;;24.40;58.90;;;;;;6244028;28;20057;-70
2021/08/07 13:45:06;;;;;;;3.33;1.05;;;24.40;58.90;;;;;;6243667;28;20034;-70
2021/08/07 13:48:07;;;;;;;2.78;1.38;;;24.40;58.90;;;;;;6244118;28;20044;-70
2021/08/07 13:51:07;;;;;;;2.28;1.08;;;24.40;58.90;;;;;;6243354;28;20499;-70
2021/08/07 13:54:08;;;;;;;1.58;1.13;;;24.40;58.90;;;;;;6243789;28;20067;-71
2021/08/07 13:57:09;;;;;;;3.53;1.05;;;24.40;58.90;;;;;;6243258;28;20048;-70
2021/08/07 14:00:10;;;;;;;2.17;1.13;;;24.40;58.90;;;;;;6243156;28;20032;-70
2021/08/07 14:03:10;;;;;;;2.42;1.20;;;24.40;58.90;;;;;;6243175;28;20416;-70
2021/08/07 14:06:12;;;;;;;3.40;1.20;;;24.40;58.90;;;;;;6243369;28;20017;-71
2021/08/07 14:09:13;;;;;;;1.52;1.00;;;24.40;58.90;;;;;;6243783;28;20075;-71
2021/08/07 14:12:14;;;;;;;1.67;1.13;;;24.40;58.90;;;;;;6243045;28;20030;-70
2021/08/07 14:15:14;;;;;;;2.45;1.25;;;24.40;58.90;;;;;;6227216;28;20630;-71
2021/08/07 14:18:15;;;;;;;1.77;1.13;;;24.40;58.90;;;;;;6244488;28;20131;-70
2021/08/07 14:21:15;;;;;;;2.05;0.90;;;24.40;58.90;;;;;;6242908;28;20022;-71
2021/08/07 14:24:17;;;;;;;2.78;1.10;;;24.40;58.90;;;;;;6243293;28;20104;-71
2021/08/07 14:27:17;;;;;;;1.85;1.00;;;24.40;58.90;;;;;;6242858;28;20112;-71
2021/08/07 14:30:18;;;;;;;1.75;1.08;;;24.40;58.90;;;;;;6242802;28;20033;-70
2021/08/07 14:33:18;;;;;;;1.10;0.85;;;24.40;58.90;;;;;;6242784;28;20030;-70
2021/08/07 14:36:19;;;;;;;1.73;1.00;;;24.40;58.90;;;;;;6242002;28;20349;-71
2021/08/07 14:39:21;;;;;;;1.35;0.88;;;24.40;58.90;;;;;;6242640;28;20022;-71
2021/08/07 14:42:22;;;;;;;1.45;1.00;;;24.40;58.90;;;;;;6241632;28;20072;-71
2021/08/07 14:45:22;;;;;;;1.00;0.80;;;24.40;58.90;;;;;;6242459;28;20087;-71
2021/08/07 14:48:23;;;;;;;2.08;1.02;;;24.40;58.90;;;;;;6242444;28;20051;-71
2021/08/07 14:51:24;;;;;;;1.85;0.88;;;24.40;59.00;;;;;;6242179;28;20042;-70
2021/08/07 14:54:24;;;;;;;3.28;1.10;;;24.40;58.90;;;;;;6242239;28;20491;-70
2021/08/07 14:57:25;;;;;;;2.28;1.05;;;24.40;59.00;;;;;;6241962;28;20092;-70
2021/08/07 15:00:25;;;;;;;1.88;1.00;;;24.40;58.90;;;;;;6241549;28;20029;-71
2021/08/07 15:03:26;;;;;;;1.63;0.93;;;24.40;58.90;;;;;;6241713;28;20026;-70
2021/08/07 15:06:26;;;;;;;2.10;0.70;;;24.40;59.00;;;;;;6242310;28;20017;-70
2021/08/07 15:09:27;;;;;;;1.77;0.98;;;24.40;58.90;;;;;;6242251;28;20116;-70
2021/08/07 15:12:27;;;;;;;0.95;0.68;;;24.40;58.90;;;;;;6241236;28;20233;-70
2021/08/07 15:15:28;;;;;;;1.70;0.90;;;24.40;59.00;;;;;;6220244;28;20085;-70
2021/08/07 15:18:29;;;;;;;1.33;0.70;;;24.40;58.90;;;;;;6236273;28;20109;-70
2021/08/07 15:21:29;;;;;;;1.88;0.80;;;24.40;59.00;;;;;;6241484;28;20532;-70
2021/08/07 15:24:30;;;;;;;1.50;0.80;;;24.40;58.90;;;;;;6241451;28;20045;-70
2021/08/07 15:27:31;;;;;;;1.45;0.70;;;24.40;59.00;;;;;;6241008;28;20207;-70
2021/08/07 15:30:31;;;;;;;1.60;0.90;;;24.40;59.00;;;;;;6241719;28;20038;-70
2021/08/07 15:33:32;;;;;;;0.63;0.50;;;24.40;59.00;;;;;;6241111;28;20105;-70
2021/08/07 15:36:34;;;;;;;0.73;0.60;;;24.40;59.00;;;;;;6241281;28;20040;-70
2021/08/07 15:39:34;;;;;;;1.67;0.70;;;24.40;59.00;;;;;;6241282;28;20033;-70
2021/08/07 15:42:36;;;;;;;1.42;0.70;;;24.40;59.00;;;;;;6241105;28;20025;-70
2021/08/07 15:45:36;;;;;;;0.88;0.50;;;24.40;59.00;;;;;;6240928;28;20029;-71
2021/08/07 15:48:37;;;;;;;1.60;0.85;;;24.40;59.00;;;;;;6240746;28;20451;-70